Ama, Louisiana
Current Conditions -  °F | °C
As of 9:53 PM on Friday 19 Dec 2014 (Local Time) from KMSY Reporting Station
Light Rain Light Rain  
Wind Chill: 51°   Ceiling: 800
Heat Index: 51°   Visibility: 6mi
Dew Point: 48°   Wind: 13mph
Humidity: 89%   Direction: 60°ENE
Pressure: 30.08"   Gusts: NA
Location:  29.95°N, 90.3°W
Report Text: KMSY 200353Z 06011KT 6SM -RA BR BKN008 OVC013 11/09 A3008 RMK AO2 SLP189 P0006 T01060089
Loading
Personal Weather Stations






























Interactive Weather Map New forecast layout! Learn more

10-Day Weather Forecast

Advertisements
Track Severe Weather on mobile